sensor_id;sensor_type;location;lat;lon;timestamp;P1;durP1;ratioP1;P2;durP2;ratioP2
29908;SDS011;36247;51.952;6.146;2023-08-07T00:02:08;7.28;;;2.55;;
29908;SDS011;36247;51.952;6.146;2023-08-07T00:04:33;5.10;;;2.80;;
29908;SDS011;36247;51.952;6.146;2023-08-07T00:06:59;10.93;;;3.33;;
29908;SDS011;36247;51.952;6.146;2023-08-07T00:09:25;6.95;;;3.03;;
29908;SDS011;36247;51.952;6.146;2023-08-07T00:11:50;7.78;;;3.13;;
29908;SDS011;36247;51.952;6.146;2023-08-07T00:14:16;9.90;;;3.67;;
29908;SDS011;36247;51.952;6.146;2023-08-07T00:16:42;8.70;;;3.03;;
29908;SDS011;36247;51.952;6.146;2023-08-07T00:19:08;11.45;;;3.40;;
29908;SDS011;36247;51.952;6.146;2023-08-07T00:21:33;11.13;;;3.22;;
29908;SDS011;36247;51.952;6.146;2023-08-07T00:24:01;5.75;;;2.38;;
29908;SDS011;36247;51.952;6.146;2023-08-07T00:26:27;8.85;;;2.63;;
29908;SDS011;36247;51.952;6.146;2023-08-07T00:28:52;11.30;;;2.70;;
29908;SDS011;36247;51.952;6.146;2023-08-07T00:31:18;8.23;;;2.65;;
29908;SDS011;36247;51.952;6.146;2023-08-07T00:33:44;8.63;;;2.95;;
29908;SDS011;36247;51.952;6.146;2023-08-07T00:36:10;7.40;;;2.58;;
29908;SDS011;36247;51.952;6.146;2023-08-07T00:38:37;7.53;;;2.50;;
29908;SDS011;36247;51.952;6.146;2023-08-07T00:41:03;15.77;;;2.92;;
29908;SDS011;36247;51.952;6.146;2023-08-07T00:43:28;4.05;;;2.10;;
29908;SDS011;36247;51.952;6.146;2023-08-07T00:45:55;3.03;;;2.00;;
29908;SDS011;36247;51.952;6.146;2023-08-07T00:48:20;3.40;;;2.33;;
29908;SDS011;36247;51.952;6.146;2023-08-07T00:50:46;5.50;;;2.83;;
29908;SDS011;36247;51.952;6.146;2023-08-07T00:53:15;3.67;;;2.30;;
29908;SDS011;36247;51.952;6.146;2023-08-07T00:55:41;4.18;;;1.77;;
29908;SDS011;36247;51.952;6.146;2023-08-07T00:58:08;4.63;;;1.83;;
29908;SDS011;36247;51.952;6.146;2023-08-07T01:00:34;5.05;;;2.05;;
29908;SDS011;36247;51.952;6.146;2023-08-07T01:03:00;6.38;;;1.85;;
29908;SDS011;36247;51.952;6.146;2023-08-07T01:05:27;7.75;;;2.58;;
29908;SDS011;36247;51.952;6.146;2023-08-07T01:07:53;6.10;;;1.67;;
29908;SDS011;36247;51.952;6.146;2023-08-07T01:10:22;5.25;;;2.10;;
29908;SDS011;36247;51.952;6.146;2023-08-07T01:13:03;5.85;;;1.92;;
29908;SDS011;36247;51.952;6.146;2023-08-07T01:15:35;8.85;;;2.60;;
29908;SDS011;36247;51.952;6.146;2023-08-07T01:18:03;8.45;;;2.30;;
29908;SDS011;36247;51.952;6.146;2023-08-07T01:20:30;5.75;;;1.70;;
29908;SDS011;36247;51.952;6.146;2023-08-07T01:22:58;4.95;;;2.03;;
29908;SDS011;36247;51.952;6.146;2023-08-07T01:25:23;5.97;;;1.95;;
29908;SDS011;36247;51.952;6.146;2023-08-07T01:27:52;5.75;;;1.77;;
29908;SDS011;36247;51.952;6.146;2023-08-07T01:30:35;6.13;;;2.13;;
29908;SDS011;36247;51.952;6.146;2023-08-07T01:35:49;8.57;;;2.67;;
29908;SDS011;36247;51.952;6.146;2023-08-07T01:38:18;10.07;;;3.28;;
29908;SDS011;36247;51.952;6.146;2023-08-07T01:40:49;9.57;;;2.90;;
29908;SDS011;36247;51.952;6.146;2023-08-07T01:43:18;13.75;;;3.35;;
29908;SDS011;36247;51.952;6.146;2023-08-07T01:45:45;8.82;;;3.15;;
29908;SDS011;36247;51.952;6.146;2023-08-07T01:48:11;12.32;;;3.13;;
29908;SDS011;36247;51.952;6.146;2023-08-07T01:50:38;10.85;;;2.83;;
29908;SDS011;36247;51.952;6.146;2023-08-07T01:53:05;11.98;;;3.08;;
29908;SDS011;36247;51.952;6.146;2023-08-07T01:55:31;13.90;;;2.92;;
29908;SDS011;36247;51.952;6.146;2023-08-07T01:57:57;11.02;;;2.90;;
29908;SDS011;36247;51.952;6.146;2023-08-07T02:00:23;7.90;;;3.13;;
29908;SDS011;36247;51.952;6.146;2023-08-07T02:02:48;8.48;;;2.92;;
29908;SDS011;36247;51.952;6.146;2023-08-07T02:05:15;13.95;;;3.85;;
29908;SDS011;36247;51.952;6.146;2023-08-07T02:07:41;10.30;;;3.42;;
29908;SDS011;36247;51.952;6.146;2023-08-07T02:10:08;13.02;;;3.25;;
29908;SDS011;36247;51.952;6.146;2023-08-07T02:12:35;13.75;;;3.40;;
29908;SDS011;36247;51.952;6.146;2023-08-07T02:15:04;15.02;;;3.30;;
29908;SDS011;36247;51.952;6.146;2023-08-07T02:17:30;19.33;;;3.55;;
29908;SDS011;36247;51.952;6.146;2023-08-07T02:19:58;9.95;;;3.60;;
29908;SDS011;36247;51.952;6.146;2023-08-07T02:22:23;13.73;;;3.55;;
29908;SDS011;36247;51.952;6.146;2023-08-07T02:24:49;17.00;;;4.78;;
29908;SDS011;36247;51.952;6.146;2023-08-07T02:27:15;13.50;;;4.30;;
29908;SDS011;36247;51.952;6.146;2023-08-07T02:29:41;11.75;;;3.72;;
29908;SDS011;36247;51.952;6.146;2023-08-07T02:32:08;14.27;;;4.05;;
29908;SDS011;36247;51.952;6.146;2023-08-07T02:34:33;17.05;;;3.95;;
29908;SDS011;36247;51.952;6.146;2023-08-07T02:36:59;17.90;;;4.45;;
29908;SDS011;36247;51.952;6.146;2023-08-07T02:39:25;12.25;;;3.97;;
29908;SDS011;36247;51.952;6.146;2023-08-07T02:41:51;24.90;;;4.90;;
29908;SDS011;36247;51.952;6.146;2023-08-07T02:44:17;17.08;;;4.55;;
29908;SDS011;36247;51.952;6.146;2023-08-07T02:46:43;15.18;;;4.30;;
29908;SDS011;36247;51.952;6.146;2023-08-07T02:49:09;7.35;;;3.47;;
29908;SDS011;36247;51.952;6.146;2023-08-07T02:51:36;19.70;;;4.20;;
29908;SDS011;36247;51.952;6.146;2023-08-07T02:54:02;16.02;;;3.30;;
29908;SDS011;36247;51.952;6.146;2023-08-07T02:56:27;16.67;;;4.75;;
29908;SDS011;36247;51.952;6.146;2023-08-07T02:58:53;11.60;;;3.70;;
29908;SDS011;36247;51.952;6.146;2023-08-07T03:01:19;13.25;;;3.67;;
29908;SDS011;36247;51.952;6.146;2023-08-07T03:03:45;19.15;;;3.95;;
29908;SDS011;36247;51.952;6.146;2023-08-07T03:06:11;10.40;;;3.92;;
29908;SDS011;36247;51.952;6.146;2023-08-07T03:08:37;9.43;;;3.75;;
29908;SDS011;36247;51.952;6.146;2023-08-07T03:11:03;9.07;;;3.50;;
29908;SDS011;36247;51.952;6.146;2023-08-07T03:13:28;18.08;;;4.32;;
29908;SDS011;36247;51.952;6.146;2023-08-07T03:16:01;12.95;;;3.88;;
29908;SDS011;36247;51.952;6.146;2023-08-07T03:18:28;9.15;;;4.05;;
29908;SDS011;36247;51.952;6.146;2023-08-07T03:20:56;12.77;;;4.00;;
29908;SDS011;36247;51.952;6.146;2023-08-07T03:23:22;9.77;;;4.18;;
29908;SDS011;36247;51.952;6.146;2023-08-07T03:25:50;10.40;;;3.90;;
29908;SDS011;36247;51.952;6.146;2023-08-07T03:28:16;16.08;;;5.05;;
29908;SDS011;36247;51.952;6.146;2023-08-07T03:30:43;19.35;;;4.45;;
29908;SDS011;36247;51.952;6.146;2023-08-07T03:33:12;13.32;;;5.10;;
29908;SDS011;36247;51.952;6.146;2023-08-07T03:35:39;13.20;;;4.60;;
29908;SDS011;36247;51.952;6.146;2023-08-07T03:38:06;10.75;;;4.78;;
29908;SDS011;36247;51.952;6.146;2023-08-07T03:40:32;16.00;;;5.50;;
29908;SDS011;36247;51.952;6.146;2023-08-07T03:43:00;13.93;;;4.68;;
29908;SDS011;36247;51.952;6.146;2023-08-07T03:45:25;12.95;;;3.95;;
29908;SDS011;36247;51.952;6.146;2023-08-07T03:47:51;7.57;;;3.75;;
29908;SDS011;36247;51.952;6.146;2023-08-07T03:50:17;16.67;;;4.30;;
29908;SDS011;36247;51.952;6.146;2023-08-07T03:52:42;13.10;;;4.20;;
29908;SDS011;36247;51.952;6.146;2023-08-07T03:55:08;10.80;;;3.92;;
29908;SDS011;36247;51.952;6.146;2023-08-07T03:57:34;12.73;;;4.30;;
29908;SDS011;36247;51.952;6.146;2023-08-07T03:59:59;13.55;;;3.50;;
29908;SDS011;36247;51.952;6.146;2023-08-07T04:02:27;13.27;;;3.63;;
29908;SDS011;36247;51.952;6.146;2023-08-07T04:04:55;13.38;;;3.78;;
29908;SDS011;36247;51.952;6.146;2023-08-07T04:07:20;12.15;;;4.13;;
29908;SDS011;36247;51.952;6.146;2023-08-07T04:09:45;13.35;;;3.47;;
29908;SDS011;36247;51.952;6.146;2023-08-07T04:12:14;12.73;;;3.72;;
29908;SDS011;36247;51.952;6.146;2023-08-07T04:14:41;9.93;;;3.53;;
29908;SDS011;36247;51.952;6.146;2023-08-07T04:17:07;12.40;;;4.20;;
29908;SDS011;36247;51.952;6.146;2023-08-07T04:19:33;11.38;;;3.78;;
29908;SDS011;36247;51.952;6.146;2023-08-07T04:21:58;10.82;;;3.80;;
29908;SDS011;36247;51.952;6.146;2023-08-07T04:24:25;13.48;;;4.95;;
29908;SDS011;36247;51.952;6.146;2023-08-07T04:26:50;12.98;;;4.20;;
29908;SDS011;36247;51.952;6.146;2023-08-07T04:29:16;9.77;;;3.38;;
29908;SDS011;36247;51.952;6.146;2023-08-07T04:31:42;6.80;;;3.47;;
29908;SDS011;36247;51.952;6.146;2023-08-07T04:34:08;12.25;;;4.07;;
29908;SDS011;36247;51.952;6.146;2023-08-07T04:36:34;8.40;;;3.70;;
29908;SDS011;36247;51.952;6.146;2023-08-07T04:39:00;10.20;;;3.35;;
29908;SDS011;36247;51.952;6.146;2023-08-07T04:41:25;12.32;;;3.72;;
29908;SDS011;36247;51.952;6.146;2023-08-07T04:43:51;7.28;;;3.40;;
29908;SDS011;36247;51.952;6.146;2023-08-07T04:46:16;9.95;;;3.35;;
29908;SDS011;36247;51.952;6.146;2023-08-07T04:48:42;11.98;;;3.42;;
29908;SDS011;36247;51.952;6.146;2023-08-07T04:51:08;6.82;;;3.15;;
29908;SDS011;36247;51.952;6.146;2023-08-07T04:53:33;9.35;;;3.63;;
29908;SDS011;36247;51.952;6.146;2023-08-07T04:55:59;11.32;;;3.88;;
29908;SDS011;36247;51.952;6.146;2023-08-07T04:58:25;9.85;;;3.58;;
29908;SDS011;36247;51.952;6.146;2023-08-07T05:00:57;7.07;;;3.28;;
29908;SDS011;36247;51.952;6.146;2023-08-07T05:03:23;7.93;;;3.75;;
29908;SDS011;36247;51.952;6.146;2023-08-07T05:05:50;12.02;;;3.35;;
29908;SDS011;36247;51.952;6.146;2023-08-07T05:08:16;6.72;;;3.20;;
29908;SDS011;36247;51.952;6.146;2023-08-07T05:10:43;6.85;;;2.75;;
29908;SDS011;36247;51.952;6.146;2023-08-07T05:13:08;6.88;;;2.75;;
29908;SDS011;36247;51.952;6.146;2023-08-07T05:15:34;6.90;;;2.80;;
29908;SDS011;36247;51.952;6.146;2023-08-07T05:18:00;11.05;;;3.50;;
29908;SDS011;36247;51.952;6.146;2023-08-07T05:20:25;9.90;;;3.53;;
29908;SDS011;36247;51.952;6.146;2023-08-07T05:22:51;6.80;;;3.05;;
29908;SDS011;36247;51.952;6.146;2023-08-07T05:25:17;5.22;;;3.00;;
29908;SDS011;36247;51.952;6.146;2023-08-07T05:27:44;8.75;;;3.22;;
29908;SDS011;36247;51.952;6.146;2023-08-07T05:30:11;10.13;;;3.83;;
29908;SDS011;36247;51.952;6.146;2023-08-07T05:32:38;6.05;;;3.65;;
29908;SDS011;36247;51.952;6.146;2023-08-07T05:35:06;9.18;;;3.10;;
29908;SDS011;36247;51.952;6.146;2023-08-07T05:37:33;9.38;;;3.65;;
29908;SDS011;36247;51.952;6.146;2023-08-07T05:39:59;11.27;;;4.00;;
29908;SDS011;36247;51.952;6.146;2023-08-07T05:42:25;12.10;;;3.97;;
29908;SDS011;36247;51.952;6.146;2023-08-07T05:44:51;12.57;;;4.40;;
29908;SDS011;36247;51.952;6.146;2023-08-07T05:47:17;12.63;;;3.95;;
29908;SDS011;36247;51.952;6.146;2023-08-07T05:49:43;10.30;;;4.10;;
29908;SDS011;36247;51.952;6.146;2023-08-07T05:52:08;15.15;;;4.18;;
29908;SDS011;36247;51.952;6.146;2023-08-07T05:54:34;11.20;;;4.95;;
29908;SDS011;36247;51.952;6.146;2023-08-07T05:57:00;12.32;;;4.07;;
29908;SDS011;36247;51.952;6.146;2023-08-07T05:59:26;13.75;;;4.95;;
29908;SDS011;36247;51.952;6.146;2023-08-07T06:01:51;16.67;;;4.43;;
29908;SDS011;36247;51.952;6.146;2023-08-07T06:04:18;11.63;;;4.18;;
29908;SDS011;36247;51.952;6.146;2023-08-07T06:06:44;21.95;;;5.22;;
29908;SDS011;36247;51.952;6.146;2023-08-07T06:09:11;13.48;;;4.38;;
29908;SDS011;36247;51.952;6.146;2023-08-07T06:11:36;17.38;;;5.53;;
29908;SDS011;36247;51.952;6.146;2023-08-07T06:14:02;16.10;;;4.93;;
29908;SDS011;36247;51.952;6.146;2023-08-07T06:16:28;15.35;;;4.55;;
29908;SDS011;36247;51.952;6.146;2023-08-07T06:18:53;11.60;;;4.72;;
29908;SDS011;36247;51.952;6.146;2023-08-07T06:21:19;14.55;;;5.40;;
29908;SDS011;36247;51.952;6.146;2023-08-07T06:23:45;16.70;;;5.43;;
29908;SDS011;36247;51.952;6.146;2023-08-07T06:26:12;16.60;;;4.90;;
29908;SDS011;36247;51.952;6.146;2023-08-07T06:28:41;18.67;;;5.55;;
29908;SDS011;36247;51.952;6.146;2023-08-07T06:31:09;13.13;;;4.78;;
29908;SDS011;36247;51.952;6.146;2023-08-07T06:33:36;15.88;;;4.80;;
29908;SDS011;36247;51.952;6.146;2023-08-07T06:36:03;17.77;;;5.43;;
29908;SDS011;36247;51.952;6.146;2023-08-07T06:38:30;16.67;;;5.10;;
29908;SDS011;36247;51.952;6.146;2023-08-07T06:40:56;15.55;;;4.30;;
29908;SDS011;36247;51.952;6.146;2023-08-07T06:43:22;19.08;;;5.28;;
29908;SDS011;36247;51.952;6.146;2023-08-07T06:45:51;12.85;;;4.93;;
29908;SDS011;36247;51.952;6.146;2023-08-07T06:48:17;16.30;;;4.93;;
29908;SDS011;36247;51.952;6.146;2023-08-07T06:50:43;13.82;;;4.57;;
29908;SDS011;36247;51.952;6.146;2023-08-07T06:53:10;12.93;;;4.18;;
29908;SDS011;36247;51.952;6.146;2023-08-07T06:55:35;19.33;;;5.07;;
29908;SDS011;36247;51.952;6.146;2023-08-07T06:58:01;18.17;;;5.22;;
29908;SDS011;36247;51.952;6.146;2023-08-07T07:00:27;14.40;;;4.30;;
29908;SDS011;36247;51.952;6.146;2023-08-07T07:02:53;18.92;;;5.53;;
29908;SDS011;36247;51.952;6.146;2023-08-07T07:05:19;18.13;;;5.80;;
29908;SDS011;36247;51.952;6.146;2023-08-07T07:07:45;11.88;;;4.90;;
29908;SDS011;36247;51.952;6.146;2023-08-07T07:10:10;19.73;;;5.30;;
29908;SDS011;36247;51.952;6.146;2023-08-07T07:12:36;23.98;;;6.00;;
29908;SDS011;36247;51.952;6.146;2023-08-07T07:15:02;14.20;;;4.93;;
29908;SDS011;36247;51.952;6.146;2023-08-07T07:17:28;15.02;;;5.13;;
29908;SDS011;36247;51.952;6.146;2023-08-07T07:19:56;16.25;;;4.93;;
29908;SDS011;36247;51.952;6.146;2023-08-07T07:22:22;16.02;;;5.40;;
29908;SDS011;36247;51.952;6.146;2023-08-07T07:24:48;17.45;;;5.07;;
29908;SDS011;36247;51.952;6.146;2023-08-07T07:27:15;19.60;;;5.88;;
29908;SDS011;36247;51.952;6.146;2023-08-07T07:29:41;19.60;;;4.93;;
29908;SDS011;36247;51.952;6.146;2023-08-07T07:32:08;19.75;;;4.93;;
29908;SDS011;36247;51.952;6.146;2023-08-07T07:34:33;14.10;;;5.05;;
29908;SDS011;36247;51.952;6.146;2023-08-07T07:37:00;19.45;;;5.18;;
29908;SDS011;36247;51.952;6.146;2023-08-07T07:39:25;16.48;;;5.00;;
29908;SDS011;36247;51.952;6.146;2023-08-07T07:41:51;18.60;;;4.53;;
29908;SDS011;36247;51.952;6.146;2023-08-07T07:44:17;14.52;;;4.93;;
29908;SDS011;36247;51.952;6.146;2023-08-07T07:46:42;19.27;;;5.80;;
29908;SDS011;36247;51.952;6.146;2023-08-07T07:49:08;19.45;;;4.38;;
29908;SDS011;36247;51.952;6.146;2023-08-07T07:51:34;17.98;;;5.32;;
29908;SDS011;36247;51.952;6.146;2023-08-07T07:54:00;17.85;;;5.28;;
29908;SDS011;36247;51.952;6.146;2023-08-07T07:56:27;16.60;;;4.60;;
29908;SDS011;36247;51.952;6.146;2023-08-07T07:58:53;13.10;;;4.45;;
29908;SDS011;36247;51.952;6.146;2023-08-07T08:01:18;14.80;;;4.78;;
29908;SDS011;36247;51.952;6.146;2023-08-07T08:03:45;18.40;;;5.10;;
29908;SDS011;36247;51.952;6.146;2023-08-07T08:06:11;18.40;;;4.60;;
29908;SDS011;36247;51.952;6.146;2023-08-07T08:08:38;11.65;;;4.72;;
29908;SDS011;36247;51.952;6.146;2023-08-07T08:11:08;18.70;;;4.43;;
29908;SDS011;36247;51.952;6.146;2023-08-07T08:13:33;15.50;;;4.30;;
29908;SDS011;36247;51.952;6.146;2023-08-07T08:16:03;15.45;;;4.32;;
29908;SDS011;36247;51.952;6.146;2023-08-07T08:18:30;18.73;;;5.70;;
29908;SDS011;36247;51.952;6.146;2023-08-07T08:20:55;17.83;;;4.53;;
29908;SDS011;36247;51.952;6.146;2023-08-07T08:23:21;10.95;;;4.60;;
29908;SDS011;36247;51.952;6.146;2023-08-07T08:25:47;19.52;;;4.15;;
29908;SDS011;36247;51.952;6.146;2023-08-07T08:28:13;15.15;;;4.50;;
29908;SDS011;36247;51.952;6.146;2023-08-07T08:30:39;15.80;;;4.40;;
29908;SDS011;36247;51.952;6.146;2023-08-07T08:33:06;11.07;;;3.88;;
29908;SDS011;36247;51.952;6.146;2023-08-07T08:35:34;13.77;;;4.50;;
29908;SDS011;36247;51.952;6.146;2023-08-07T08:38:00;7.88;;;3.70;;
29908;SDS011;36247;51.952;6.146;2023-08-07T08:40:27;9.20;;;4.07;;
29908;SDS011;36247;51.952;6.146;2023-08-07T08:42:53;13.63;;;4.38;;
29908;SDS011;36247;51.952;6.146;2023-08-07T08:45:23;10.82;;;4.30;;
29908;SDS011;36247;51.952;6.146;2023-08-07T08:47:51;10.75;;;5.35;;
29908;SDS011;36247;51.952;6.146;2023-08-07T08:50:18;13.85;;;5.38;;
29908;SDS011;36247;51.952;6.146;2023-08-07T08:52:45;16.75;;;4.80;;
29908;SDS011;36247;51.952;6.146;2023-08-07T08:55:11;13.02;;;4.97;;
29908;SDS011;36247;51.952;6.146;2023-08-07T08:57:39;13.13;;;4.32;;
29908;SDS011;36247;51.952;6.146;2023-08-07T09:00:06;14.70;;;5.43;;
29908;SDS011;36247;51.952;6.146;2023-08-07T09:02:46;16.25;;;4.72;;
29908;SDS011;36247;51.952;6.146;2023-08-07T09:05:16;13.32;;;4.45;;
29908;SDS011;36247;51.952;6.146;2023-08-07T09:07:43;10.10;;;4.00;;
29908;SDS011;36247;51.952;6.146;2023-08-07T09:10:13;13.13;;;4.55;;
29908;SDS011;36247;51.952;6.146;2023-08-07T09:13:04;17.00;;;4.85;;
29908;SDS011;36247;51.952;6.146;2023-08-07T09:15:31;11.63;;;3.55;;
29908;SDS011;36247;51.952;6.146;2023-08-07T09:17:58;10.68;;;4.13;;
29908;SDS011;36247;51.952;6.146;2023-08-07T09:20:28;15.85;;;3.78;;
29908;SDS011;36247;51.952;6.146;2023-08-07T09:22:55;13.27;;;4.47;;
29908;SDS011;36247;51.952;6.146;2023-08-07T09:25:28;13.77;;;4.10;;
29908;SDS011;36247;51.952;6.146;2023-08-07T09:27:55;11.63;;;4.20;;
29908;SDS011;36247;51.952;6.146;2023-08-07T09:30:25;18.83;;;5.32;;
29908;SDS011;36247;51.952;6.146;2023-08-07T09:32:52;14.00;;;4.03;;
29908;SDS011;36247;51.952;6.146;2023-08-07T09:35:20;16.98;;;3.97;;
29908;SDS011;36247;51.952;6.146;2023-08-07T09:37:46;13.50;;;4.22;;
29908;SDS011;36247;51.952;6.146;2023-08-07T09:40:13;11.40;;;4.53;;
29908;SDS011;36247;51.952;6.146;2023-08-07T09:42:42;11.05;;;3.88;;
29908;SDS011;36247;51.952;6.146;2023-08-07T09:47:56;14.88;;;4.00;;
29908;SDS011;36247;51.952;6.146;2023-08-07T09:50:25;12.88;;;4.15;;
29908;SDS011;36247;51.952;6.146;2023-08-07T09:52:52;10.93;;;3.60;;
29908;SDS011;36247;51.952;6.146;2023-08-07T09:55:17;14.25;;;4.00;;
29908;SDS011;36247;51.952;6.146;2023-08-07T09:57:43;9.82;;;4.65;;
29908;SDS011;36247;51.952;6.146;2023-08-07T10:00:11;10.95;;;4.38;;
29908;SDS011;36247;51.952;6.146;2023-08-07T10:02:42;12.43;;;3.42;;
29908;SDS011;36247;51.952;6.146;2023-08-07T10:05:10;18.33;;;3.83;;
29908;SDS011;36247;51.952;6.146;2023-08-07T10:07:39;13.88;;;2.95;;
29908;SDS011;36247;51.952;6.146;2023-08-07T10:10:06;10.25;;;3.53;;
29908;SDS011;36247;51.952;6.146;2023-08-07T10:12:33;13.55;;;3.72;;
29908;SDS011;36247;51.952;6.146;2023-08-07T10:14:59;14.25;;;3.78;;
29908;SDS011;36247;51.952;6.146;2023-08-07T10:17:26;10.80;;;3.47;;
29908;SDS011;36247;51.952;6.146;2023-08-07T10:19:52;11.55;;;3.75;;
29908;SDS011;36247;51.952;6.146;2023-08-07T10:22:19;13.50;;;3.55;;
29908;SDS011;36247;51.952;6.146;2023-08-07T10:24:47;12.07;;;3.28;;
29908;SDS011;36247;51.952;6.146;2023-08-07T10:27:16;13.60;;;3.42;;
29908;SDS011;36247;51.952;6.146;2023-08-07T10:29:45;14.80;;;3.30;;
29908;SDS011;36247;51.952;6.146;2023-08-07T10:32:13;8.35;;;3.05;;
29908;SDS011;36247;51.952;6.146;2023-08-07T10:34:52;11.77;;;3.17;;
29908;SDS011;36247;51.952;6.146;2023-08-07T10:40:06;9.52;;;2.88;;
29908;SDS011;36247;51.952;6.146;2023-08-07T10:45:22;10.02;;;3.33;;
29908;SDS011;36247;51.952;6.146;2023-08-07T10:50:48;13.02;;;3.63;;
29908;SDS011;36247;51.952;6.146;2023-08-07T10:53:34;7.70;;;3.13;;
29908;SDS011;36247;51.952;6.146;2023-08-07T10:56:05;13.23;;;3.53;;
29908;SDS011;36247;51.952;6.146;2023-08-07T10:58:34;12.30;;;3.63;;
29908;SDS011;36247;51.952;6.146;2023-08-07T11:04:04;8.52;;;3.50;;
29908;SDS011;36247;51.952;6.146;2023-08-07T11:06:33;12.80;;;3.60;;
29908;SDS011;36247;51.952;6.146;2023-08-07T11:09:01;11.73;;;3.22;;
29908;SDS011;36247;51.952;6.146;2023-08-07T11:11:34;7.85;;;3.40;;
29908;SDS011;36247;51.952;6.146;2023-08-07T11:14:05;10.52;;;3.00;;
29908;SDS011;36247;51.952;6.146;2023-08-07T11:16:35;14.57;;;3.25;;
29908;SDS011;36247;51.952;6.146;2023-08-07T11:19:03;11.65;;;3.65;;
29908;SDS011;36247;51.952;6.146;2023-08-07T11:21:33;11.23;;;3.38;;
29908;SDS011;36247;51.952;6.146;2023-08-07T11:23:59;14.88;;;2.88;;
29908;SDS011;36247;51.952;6.146;2023-08-07T11:26:26;16.95;;;3.97;;
29908;SDS011;36247;51.952;6.146;2023-08-07T11:28:53;9.43;;;3.53;;
29908;SDS011;36247;51.952;6.146;2023-08-07T11:31:22;11.80;;;3.20;;
29908;SDS011;36247;51.952;6.146;2023-08-07T11:33:57;10.57;;;3.08;;
29908;SDS011;36247;51.952;6.146;2023-08-07T11:36:23;10.95;;;3.05;;
29908;SDS011;36247;51.952;6.146;2023-08-07T11:38:50;15.52;;;3.42;;
29908;SDS011;36247;51.952;6.146;2023-08-07T11:41:17;11.18;;;3.50;;
29908;SDS011;36247;51.952;6.146;2023-08-07T11:43:43;10.32;;;3.10;;
29908;SDS011;36247;51.952;6.146;2023-08-07T11:46:11;7.95;;;2.72;;
29908;SDS011;36247;51.952;6.146;2023-08-07T11:48:39;10.50;;;3.13;;
29908;SDS011;36247;51.952;6.146;2023-08-07T11:51:06;8.95;;;3.15;;
29908;SDS011;36247;51.952;6.146;2023-08-07T11:53:33;11.25;;;2.88;;
29908;SDS011;36247;51.952;6.146;2023-08-07T11:56:02;9.68;;;3.20;;
29908;SDS011;36247;51.952;6.146;2023-08-07T11:58:35;8.88;;;3.80;;
29908;SDS011;36247;51.952;6.146;2023-08-07T12:01:06;11.65;;;3.30;;
29908;SDS011;36247;51.952;6.146;2023-08-07T12:03:35;10.05;;;3.67;;
29908;SDS011;36247;51.952;6.146;2023-08-07T12:06:04;11.23;;;3.33;;
29908;SDS011;36247;51.952;6.146;2023-08-07T12:08:31;9.82;;;3.17;;
29908;SDS011;36247;51.952;6.146;2023-08-07T12:11:00;8.13;;;3.42;;
29908;SDS011;36247;51.952;6.146;2023-08-07T12:13:37;13.80;;;4.00;;
29908;SDS011;36247;51.952;6.146;2023-08-07T12:16:07;10.55;;;3.13;;
29908;SDS011;36247;51.952;6.146;2023-08-07T12:18:34;12.20;;;3.42;;
29908;SDS011;36247;51.952;6.146;2023-08-07T12:21:05;10.38;;;3.40;;
29908;SDS011;36247;51.952;6.146;2023-08-07T12:23:33;7.57;;;2.90;;
29908;SDS011;36247;51.952;6.146;2023-08-07T12:26:00;9.18;;;3.60;;
29908;SDS011;36247;51.952;6.146;2023-08-07T12:28:27;5.78;;;3.10;;
29908;SDS011;36247;51.952;6.146;2023-08-07T12:30:52;5.32;;;2.95;;
29908;SDS011;36247;51.952;6.146;2023-08-07T12:33:18;7.70;;;2.80;;
29908;SDS011;36247;51.952;6.146;2023-08-07T12:35:44;10.00;;;3.83;;
29908;SDS011;36247;51.952;6.146;2023-08-07T12:38:10;7.78;;;3.28;;
29908;SDS011;36247;51.952;6.146;2023-08-07T12:40:40;6.35;;;2.97;;
29908;SDS011;36247;51.952;6.146;2023-08-07T12:43:06;10.63;;;3.30;;
29908;SDS011;36247;51.952;6.146;2023-08-07T12:45:33;6.18;;;3.03;;
29908;SDS011;36247;51.952;6.146;2023-08-07T12:48:00;6.95;;;3.10;;
29908;SDS011;36247;51.952;6.146;2023-08-07T12:50:27;10.48;;;3.33;;
29908;SDS011;36247;51.952;6.146;2023-08-07T12:52:53;8.95;;;3.33;;
29908;SDS011;36247;51.952;6.146;2023-08-07T12:55:19;11.60;;;3.15;;
29908;SDS011;36247;51.952;6.146;2023-08-07T12:57:45;8.63;;;3.33;;
29908;SDS011;36247;51.952;6.146;2023-08-07T13:00:11;7.78;;;3.10;;
29908;SDS011;36247;51.952;6.146;2023-08-07T13:02:41;9.32;;;2.88;;
29908;SDS011;36247;51.952;6.146;2023-08-07T13:05:12;7.82;;;3.22;;
29908;SDS011;36247;51.952;6.146;2023-08-07T13:07:43;10.40;;;3.00;;
29908;SDS011;36247;51.952;6.146;2023-08-07T13:10:13;8.07;;;3.17;;
29908;SDS011;36247;51.952;6.146;2023-08-07T13:12:47;9.75;;;3.70;;
29908;SDS011;36247;51.952;6.146;2023-08-07T13:15:16;7.85;;;2.67;;
29908;SDS011;36247;51.952;6.146;2023-08-07T13:17:44;7.25;;;2.80;;
29908;SDS011;36247;51.952;6.146;2023-08-07T13:20:11;9.20;;;2.88;;
29908;SDS011;36247;51.952;6.146;2023-08-07T13:22:41;6.35;;;2.95;;
29908;SDS011;36247;51.952;6.146;2023-08-07T13:25:10;7.28;;;1.83;;
29908;SDS011;36247;51.952;6.146;2023-08-07T13:27:40;12.27;;;3.10;;
29908;SDS011;36247;51.952;6.146;2023-08-07T13:30:07;8.38;;;2.40;;
29908;SDS011;36247;51.952;6.146;2023-08-07T13:32:33;5.20;;;2.65;;
29908;SDS011;36247;51.952;6.146;2023-08-07T13:35:00;5.45;;;2.95;;
29908;SDS011;36247;51.952;6.146;2023-08-07T13:37:27;7.15;;;3.13;;
29908;SDS011;36247;51.952;6.146;2023-08-07T13:39:53;8.20;;;2.90;;
29908;SDS011;36247;51.952;6.146;2023-08-07T13:42:19;7.10;;;2.50;;
29908;SDS011;36247;51.952;6.146;2023-08-07T13:44:45;10.93;;;3.60;;
29908;SDS011;36247;51.952;6.146;2023-08-07T13:47:11;12.00;;;2.70;;
29908;SDS011;36247;51.952;6.146;2023-08-07T13:49:38;11.77;;;3.10;;
29908;SDS011;36247;51.952;6.146;2023-08-07T13:52:06;13.50;;;2.90;;
29908;SDS011;36247;51.952;6.146;2023-08-07T13:54:32;10.95;;;3.17;;
29908;SDS011;36247;51.952;6.146;2023-08-07T13:56:58;8.55;;;2.90;;
29908;SDS011;36247;51.952;6.146;2023-08-07T13:59:23;9.85;;;2.80;;
29908;SDS011;36247;51.952;6.146;2023-08-07T14:01:49;8.10;;;3.15;;
29908;SDS011;36247;51.952;6.146;2023-08-07T14:04:16;6.88;;;3.10;;
29908;SDS011;36247;51.952;6.146;2023-08-07T14:06:41;7.95;;;2.70;;
29908;SDS011;36247;51.952;6.146;2023-08-07T14:09:10;5.45;;;2.75;;
29908;SDS011;36247;51.952;6.146;2023-08-07T14:11:36;5.10;;;2.53;;
29908;SDS011;36247;51.952;6.146;2023-08-07T14:14:02;5.40;;;2.10;;
29908;SDS011;36247;51.952;6.146;2023-08-07T14:16:28;4.90;;;2.85;;
29908;SDS011;36247;51.952;6.146;2023-08-07T14:18:53;5.82;;;2.17;;
29908;SDS011;36247;51.952;6.146;2023-08-07T14:21:19;8.30;;;3.03;;
29908;SDS011;36247;51.952;6.146;2023-08-07T14:23:45;6.88;;;2.42;;
29908;SDS011;36247;51.952;6.146;2023-08-07T14:26:16;4.93;;;2.40;;
29908;SDS011;36247;51.952;6.146;2023-08-07T14:28:44;6.60;;;2.58;;
29908;SDS011;36247;51.952;6.146;2023-08-07T14:31:15;8.75;;;3.17;;
29908;SDS011;36247;51.952;6.146;2023-08-07T14:33:41;8.88;;;2.80;;
29908;SDS011;36247;51.952;6.146;2023-08-07T14:36:10;6.22;;;2.70;;
29908;SDS011;36247;51.952;6.146;2023-08-07T14:38:35;6.13;;;2.20;;
29908;SDS011;36247;51.952;6.146;2023-08-07T14:41:01;6.03;;;2.22;;
29908;SDS011;36247;51.952;6.146;2023-08-07T14:43:29;5.93;;;2.70;;
29908;SDS011;36247;51.952;6.146;2023-08-07T14:45:57;8.52;;;2.40;;
29908;SDS011;36247;51.952;6.146;2023-08-07T14:48:23;3.70;;;2.17;;
29908;SDS011;36247;51.952;6.146;2023-08-07T14:50:49;4.97;;;2.22;;
29908;SDS011;36247;51.952;6.146;2023-08-07T14:53:17;5.88;;;2.10;;
29908;SDS011;36247;51.952;6.146;2023-08-07T14:55:44;4.95;;;2.30;;